createdAt,value
2023-04-26T00:01:37.939Z,24.05
2023-04-26T00:04:08.497Z,21.63
2023-04-26T00:06:39.803Z,23.10
2023-04-26T00:11:40.617Z,23.13
2023-04-26T00:14:10.838Z,27.05
2023-04-26T00:16:41.134Z,27.27
2023-04-26T00:19:12.572Z,25.83
2023-04-26T00:21:43.366Z,24.95
2023-04-26T00:24:13.694Z,23.87
2023-04-26T00:26:44.542Z,25.17
2023-04-26T00:29:14.843Z,23.40
2023-04-26T00:31:45.288Z,23.57
2023-04-26T00:34:16.422Z,24.50
2023-04-26T00:36:46.932Z,23.17
2023-04-26T00:39:17.227Z,23.48
2023-04-26T00:41:47.624Z,25.10
2023-04-26T00:44:18.184Z,27.75
2023-04-26T00:46:49.332Z,25.00
2023-04-26T00:49:21.522Z,26.48
2023-04-26T00:51:54.396Z,24.83
2023-04-26T00:54:24.886Z,24.13
2023-04-26T00:56:55.673Z,25.53
2023-04-26T00:59:26.576Z,23.73
2023-04-26T01:01:56.950Z,22.90
2023-04-26T01:04:29.789Z,23.60
2023-04-26T01:07:00.882Z,23.58
2023-04-26T01:09:34.336Z,24.27
2023-04-26T01:12:05.202Z,23.58
2023-04-26T01:14:39.086Z,24.20
2023-04-26T01:17:10.239Z,24.42
2023-04-26T01:19:50.989Z,26.10
2023-04-26T01:22:21.603Z,24.98
2023-04-26T01:24:54.326Z,24.25
2023-04-26T01:27:24.600Z,24.33
2023-04-26T01:29:55.140Z,21.27
2023-04-26T01:32:26.647Z,20.77
2023-04-26T01:34:57.152Z,23.42
2023-04-26T01:37:27.895Z,21.50
2023-04-26T01:39:59.962Z,24.27
2023-04-26T01:42:30.305Z,24.83
2023-04-26T01:45:02.893Z,23.55
2023-04-26T01:47:53.187Z,22.50
2023-04-26T01:50:23.687Z,22.90
2023-04-26T01:52:53.964Z,22.30
2023-04-26T01:55:24.463Z,22.15
2023-04-26T01:57:54.687Z,22.80
2023-04-26T02:00:25.228Z,22.73
2023-04-26T02:02:59.286Z,22.10
2023-04-26T02:05:29.746Z,22.30
2023-04-26T02:08:00.065Z,23.10
2023-04-26T02:10:30.217Z,21.77
2023-04-26T02:13:00.489Z,20.88
2023-04-26T02:15:30.743Z,20.48
2023-04-26T02:18:00.991Z,19.05
2023-04-26T02:20:31.331Z,20.55
2023-04-26T02:23:01.831Z,20.45
2023-04-26T02:25:32.336Z,19.83
2023-04-26T02:28:02.568Z,21.03
2023-04-26T02:30:33.988Z,20.98
2023-04-26T02:33:04.657Z,20.67
2023-04-26T02:35:35.244Z,18.83
2023-04-26T02:38:05.826Z,20.52
2023-04-26T02:40:36.131Z,21.30
2023-04-26T02:43:06.719Z,19.97
2023-04-26T02:45:36.831Z,20.25
2023-04-26T02:48:07.498Z,20.67
2023-04-26T02:50:38.752Z,19.83
2023-04-26T02:55:40.690Z,18.88
2023-04-26T02:58:10.976Z,19.88
2023-04-26T03:00:42.247Z,20.50
2023-04-26T03:03:12.988Z,20.40
2023-04-26T03:05:44.044Z,19.93
2023-04-26T03:08:14.365Z,21.08
2023-04-26T03:10:44.862Z,19.05
2023-04-26T03:13:15.237Z,19.80
2023-04-26T03:15:49.216Z,21.17
2023-04-26T03:18:19.447Z,18.02
2023-04-26T03:20:49.697Z,20.35
2023-04-26T03:23:20.467Z,20.97
2023-04-26T03:25:50.780Z,22.30
2023-04-26T03:28:21.306Z,21.27
2023-04-26T03:30:54.704Z,19.92
2023-04-26T03:33:25.259Z,22.08
2023-04-26T03:35:57.426Z,23.25
2023-04-26T03:38:28.465Z,20.92
2023-04-26T03:40:58.963Z,20.30
2023-04-26T03:43:29.308Z,20.65
2023-04-26T03:46:00.217Z,19.73
2023-04-26T03:48:30.558Z,19.20
2023-04-26T03:51:00.832Z,19.23
2023-04-26T03:53:31.339Z,16.88
2023-04-26T03:56:01.975Z,17.93
2023-04-26T03:58:33.986Z,16.40
2023-04-26T04:01:04.563Z,14.30
2023-04-26T04:03:35.814Z,13.67
2023-04-26T04:06:08.005Z,12.65
2023-04-26T04:08:38.420Z,12.33
2023-04-26T04:11:08.903Z,11.70
2023-04-26T04:13:41.763Z,11.05
2023-04-26T04:16:12.965Z,10.65
2023-04-26T04:18:44.270Z,9.00
2023-04-26T04:21:14.570Z,9.60
2023-04-26T04:23:45.899Z,9.15
2023-04-26T04:26:16.512Z,9.32
2023-04-26T04:28:47.969Z,8.90
2023-04-26T04:31:19.956Z,9.10
2023-04-26T04:33:51.342Z,9.10
2023-04-26T04:36:21.724Z,9.63
2023-04-26T04:38:52.040Z,8.57
2023-04-26T04:41:24.804Z,7.80
2023-04-26T04:43:56.118Z,7.10
2023-04-26T04:48:58.208Z,6.35
2023-04-26T04:51:28.510Z,6.27
2023-04-26T04:54:00.638Z,6.47
2023-04-26T04:56:31.420Z,5.78
2023-04-26T04:59:01.776Z,5.83
2023-04-26T05:01:33.651Z,6.07
2023-04-26T05:04:09.206Z,6.00
2023-04-26T05:06:40.537Z,5.70
2023-04-26T05:09:11.740Z,5.87
2023-04-26T05:11:42.187Z,5.78
2023-04-26T05:14:15.541Z,5.53
2023-04-26T05:16:46.156Z,6.03
2023-04-26T05:19:16.650Z,6.30
2023-04-26T05:24:18.109Z,6.63
2023-04-26T05:26:48.570Z,6.30
2023-04-26T05:29:39.244Z,6.53
2023-04-26T05:32:18.222Z,6.15
2023-04-26T05:35:15.155Z,5.82
2023-04-26T05:37:45.440Z,6.43
2023-04-26T05:40:17.338Z,6.15
2023-04-26T05:42:48.510Z,6.15
2023-04-26T05:47:53.939Z,6.10
2023-04-26T05:50:24.468Z,6.53
2023-04-26T05:52:54.852Z,5.60
2023-04-26T05:55:25.146Z,5.90
2023-04-26T05:57:55.723Z,5.30
2023-04-26T06:00:26.444Z,5.20
2023-04-26T06:02:57.066Z,4.70
2023-04-26T06:05:27.437Z,5.40
2023-04-26T06:07:58.357Z,5.20
2023-04-26T06:10:28.847Z,5.10
2023-04-26T06:12:59.222Z,5.40
2023-04-26T06:15:31.884Z,4.78
2023-04-26T06:18:03.234Z,5.93
2023-04-26T06:20:35.137Z,5.32
2023-04-26T06:23:06.027Z,4.95
2023-04-26T06:25:36.660Z,5.38
2023-04-26T06:28:07.619Z,5.70
2023-04-26T06:30:38.142Z,5.83
2023-04-26T06:35:43.765Z,5.30
2023-04-26T06:38:15.352Z,5.45
2023-04-26T06:40:46.121Z,5.47
2023-04-26T06:43:16.841Z,5.28
2023-04-26T06:46:06.347Z,5.50
2023-04-26T06:48:36.808Z,5.25
2023-04-26T06:51:11.096Z,5.47
2023-04-26T06:53:41.639Z,5.60
2023-04-26T06:56:12.666Z,5.57
2023-04-26T06:58:43.142Z,5.43
2023-04-26T07:01:13.445Z,5.20
2023-04-26T07:03:45.582Z,5.50
2023-04-26T07:06:15.921Z,5.07
2023-04-26T07:08:46.333Z,5.77
2023-04-26T07:11:16.513Z,5.78
2023-04-26T07:13:47.187Z,5.35
2023-04-26T07:16:17.520Z,6.07
2023-04-26T07:18:48.023Z,5.93
2023-04-26T07:21:19.763Z,5.73
2023-04-26T07:23:50.816Z,5.95
2023-04-26T07:28:51.154Z,5.50
2023-04-26T07:31:22.523Z,5.57
2023-04-26T07:33:53.216Z,5.80
2023-04-26T07:36:25.063Z,6.10
2023-04-26T07:38:55.559Z,6.00
2023-04-26T07:41:25.844Z,5.95
2023-04-26T07:43:56.327Z,6.30
2023-04-26T07:46:26.827Z,6.00
2023-04-26T07:48:57.299Z,6.23
2023-04-26T07:51:27.647Z,5.67
2023-04-26T07:54:00.902Z,5.70
2023-04-26T07:56:31.296Z,6.05
2023-04-26T07:59:01.878Z,6.30
2023-04-26T08:01:32.270Z,6.23
2023-04-26T08:04:03.190Z,6.70
2023-04-26T08:06:33.835Z,6.00
2023-04-26T08:09:04.277Z,6.30
2023-04-26T08:11:35.509Z,5.97
2023-04-26T08:16:35.790Z,6.10
2023-04-26T08:19:06.227Z,6.67
2023-04-26T08:21:36.634Z,6.00
2023-04-26T08:24:07.214Z,6.03
2023-04-26T08:26:37.486Z,6.20
2023-04-26T08:29:07.790Z,6.32
2023-04-26T08:31:38.690Z,6.57
2023-04-26T08:34:11.002Z,6.47
2023-04-26T08:36:41.328Z,6.45
2023-04-26T08:39:12.140Z,6.70
2023-04-26T08:41:48.701Z,6.90
2023-04-26T08:44:20.661Z,6.88
2023-04-26T08:47:14.913Z,6.57
2023-04-26T08:49:49.908Z,6.57
2023-04-26T08:52:25.293Z,7.22
2023-04-26T08:54:57.022Z,7.25
2023-04-26T08:57:28.028Z,8.23
2023-04-26T09:00:00.843Z,8.65
2023-04-26T09:02:31.861Z,9.32
2023-04-26T09:07:44.434Z,10.20
2023-04-26T09:10:16.402Z,9.07
2023-04-26T09:12:46.628Z,8.50
2023-04-26T09:15:18.605Z,8.27
2023-04-26T09:17:48.956Z,7.65
2023-04-26T09:20:31.287Z,8.10
2023-04-26T09:23:11.084Z,7.93
2023-04-26T09:25:42.066Z,7.65
2023-04-26T09:28:26.403Z,7.53
2023-04-26T09:30:56.806Z,8.30
2023-04-26T09:33:27.186Z,8.43
2023-04-26T09:35:57.463Z,8.13
2023-04-26T09:38:27.564Z,7.50
2023-04-26T09:41:01.784Z,7.63
2023-04-26T09:43:40.284Z,8.35
2023-04-26T09:46:10.603Z,8.07
2023-04-26T09:48:40.854Z,8.15
2023-04-26T09:51:17.102Z,9.07
2023-04-26T09:53:56.646Z,8.23
2023-04-26T09:56:27.377Z,8.85
2023-04-26T09:59:01.782Z,8.93
2023-04-26T10:01:32.533Z,8.57
2023-04-26T10:04:07.096Z,9.25
2023-04-26T10:06:37.642Z,9.30
2023-04-26T10:09:11.562Z,9.30
2023-04-26T10:11:41.853Z,9.02
2023-04-26T10:14:12.145Z,9.40
2023-04-26T10:16:44.619Z,8.85
2023-04-26T10:19:15.116Z,9.02
2023-04-26T10:21:46.749Z,9.33
2023-04-26T10:24:17.446Z,9.38
2023-04-26T10:26:59.796Z,10.20
2023-04-26T10:30:02.406Z,10.90
2023-04-26T10:32:33.660Z,10.15
2023-04-26T10:38:05.849Z,10.57
2023-04-26T10:40:39.750Z,11.32
2023-04-26T10:43:18.607Z,12.05
2023-04-26T10:45:50.580Z,10.85
2023-04-26T10:48:33.361Z,11.00
2023-04-26T10:51:07.969Z,11.90
2023-04-26T10:53:50.876Z,11.77
2023-04-26T10:56:27.168Z,12.25
2023-04-26T10:59:33.093Z,12.40
2023-04-26T11:02:05.510Z,13.25
2023-04-26T11:04:55.512Z,12.93
2023-04-26T11:07:44.705Z,13.77
2023-04-26T11:10:26.448Z,13.80
2023-04-26T11:13:06.690Z,14.25
2023-04-26T11:15:37.505Z,15.38
2023-04-26T11:18:08.598Z,13.23
2023-04-26T11:20:38.872Z,14.25
2023-04-26T11:23:11.534Z,14.23
2023-04-26T11:25:44.793Z,14.15
2023-04-26T11:28:15.556Z,14.70
2023-04-26T11:30:46.828Z,15.77
2023-04-26T11:35:56.888Z,16.73
2023-04-26T11:38:28.636Z,16.10
2023-04-26T11:41:06.133Z,15.90
2023-04-26T11:43:40.609Z,16.92
2023-04-26T11:46:12.366Z,15.88
2023-04-26T11:48:43.322Z,16.58
2023-04-26T11:51:14.378Z,16.00
2023-04-26T11:53:45.918Z,16.33
2023-04-26T11:56:25.407Z,16.83
2023-04-26T11:58:56.778Z,17.40
2023-04-26T12:01:32.494Z,18.45
2023-04-26T12:04:03.131Z,18.70
2023-04-26T12:06:47.810Z,18.15
2023-04-26T12:09:18.102Z,19.15
2023-04-26T12:12:08.986Z,18.23
2023-04-26T12:14:41.124Z,16.53
2023-04-26T12:17:12.784Z,16.40
2023-04-26T12:19:43.665Z,17.65
2023-04-26T12:22:13.897Z,17.05
2023-04-26T12:24:45.487Z,18.63
2023-04-26T12:27:24.241Z,18.58
2023-04-26T12:29:54.554Z,17.20
2023-04-26T12:32:24.823Z,16.58
2023-04-26T12:34:55.023Z,18.77
2023-04-26T12:37:25.383Z,18.85
2023-04-26T12:39:55.567Z,19.50
2023-04-26T12:42:25.783Z,19.88
2023-04-26T12:44:56.017Z,18.17
2023-04-26T12:47:26.236Z,18.13
2023-04-26T12:49:56.837Z,17.95
2023-04-26T12:52:27.127Z,20.70
2023-04-26T12:54:57.390Z,21.33
2023-04-26T12:57:27.909Z,21.42
2023-04-26T12:59:58.981Z,20.92
2023-04-26T13:03:27.299Z,23.00
2023-04-26T13:05:57.917Z,24.58
2023-04-26T13:08:29.607Z,22.20
2023-04-26T13:11:00.305Z,21.45
2023-04-26T13:13:42.334Z,19.60
2023-04-26T13:16:14.817Z,19.75
2023-04-26T13:18:45.154Z,18.83
2023-04-26T13:21:15.637Z,18.95
2023-04-26T13:23:45.822Z,18.40
2023-04-26T13:26:17.238Z,18.95
2023-04-26T13:28:47.570Z,18.67
2023-04-26T13:31:19.675Z,19.13
2023-04-26T13:33:51.645Z,19.05
2023-04-26T13:36:22.193Z,18.60
2023-04-26T13:38:52.564Z,18.70
2023-04-26T13:41:23.027Z,18.73
2023-04-26T13:43:53.827Z,17.13
2023-04-26T13:46:24.887Z,19.20
2023-04-26T13:48:55.323Z,19.67
2023-04-26T13:51:27.505Z,19.43
2023-04-26T13:53:58.237Z,21.05
2023-04-26T13:56:28.777Z,21.30
2023-04-26T13:58:59.556Z,20.53
2023-04-26T14:01:30.729Z,18.98
2023-04-26T14:06:31.870Z,21.15
2023-04-26T14:09:02.517Z,19.27
2023-04-26T14:11:33.138Z,18.50
2023-04-26T14:14:03.556Z,20.83
2023-04-26T14:16:34.248Z,19.87
2023-04-26T14:19:05.157Z,19.45
2023-04-26T14:21:35.451Z,20.95
2023-04-26T14:24:05.817Z,21.05
2023-04-26T14:26:36.200Z,20.47
2023-04-26T14:29:07.590Z,18.77
2023-04-26T14:31:38.382Z,18.55
2023-04-26T14:34:08.972Z,19.48
2023-04-26T14:36:40.774Z,20.13
2023-04-26T14:39:11.231Z,19.35
2023-04-26T14:41:41.610Z,19.07
2023-04-26T14:44:12.012Z,21.23
2023-04-26T14:46:42.435Z,20.20
2023-04-26T14:49:13.343Z,20.80
2023-04-26T14:51:43.747Z,22.13
2023-04-26T14:54:14.474Z,21.50
2023-04-26T14:56:44.725Z,20.60
2023-04-26T14:59:15.927Z,20.83
2023-04-26T15:04:16.309Z,21.52
2023-04-26T15:06:46.775Z,22.00
2023-04-26T15:09:17.399Z,21.25
2023-04-26T15:11:47.888Z,21.08
2023-04-26T15:14:18.333Z,20.93
2023-04-26T15:16:48.689Z,22.27
2023-04-26T15:19:19.370Z,22.10
2023-04-26T15:21:49.615Z,23.20
2023-04-26T15:24:19.647Z,22.83
2023-04-26T15:26:49.902Z,22.52
2023-04-26T15:29:20.092Z,21.75
2023-04-26T15:31:50.391Z,21.77
2023-04-26T15:34:21.187Z,22.05
2023-04-26T15:36:51.454Z,22.67
2023-04-26T15:39:21.858Z,23.15
2023-04-26T15:41:52.106Z,22.27
2023-04-26T15:44:22.331Z,22.58
2023-04-26T15:46:52.588Z,22.23
2023-04-26T15:49:22.814Z,21.48
2023-04-26T15:51:53.205Z,22.85
2023-04-26T15:54:24.130Z,21.98
2023-04-26T15:56:55.024Z,22.10
2023-04-26T15:59:25.879Z,22.67
2023-04-26T16:01:56.406Z,21.95
2023-04-26T16:04:26.718Z,23.08
2023-04-26T16:06:57.344Z,22.25
2023-04-26T16:09:27.963Z,21.83
2023-04-26T16:11:58.381Z,22.90
2023-04-26T16:14:28.798Z,22.88
2023-04-26T16:17:00.806Z,23.23
2023-04-26T16:19:31.835Z,22.30
2023-04-26T16:22:02.069Z,24.17
2023-04-26T16:24:32.192Z,23.42
2023-04-26T16:27:02.259Z,23.58
2023-04-26T16:29:32.402Z,23.48
2023-04-26T16:32:02.760Z,25.17
2023-04-26T16:34:33.449Z,23.67
2023-04-26T16:37:03.753Z,22.67
2023-04-26T16:39:34.072Z,23.88
2023-04-26T16:42:05.798Z,24.37
2023-04-26T16:44:36.242Z,23.90
2023-04-26T16:47:06.744Z,23.90
2023-04-26T16:49:37.107Z,24.55
2023-04-26T16:52:07.587Z,22.90
2023-04-26T16:54:37.907Z,23.38
2023-04-26T16:57:08.794Z,22.20
2023-04-26T16:59:39.236Z,24.05
2023-04-26T17:02:09.589Z,21.45
2023-04-26T17:04:40.223Z,23.67
2023-04-26T17:07:11.001Z,21.42
2023-04-26T17:09:41.937Z,23.23
2023-04-26T17:12:12.354Z,21.88
2023-04-26T17:14:43.937Z,24.02
2023-04-26T17:17:14.412Z,20.95
2023-04-26T17:19:44.729Z,22.27
2023-04-26T17:22:15.053Z,21.13
2023-04-26T17:24:45.335Z,22.60
2023-04-26T17:27:15.543Z,23.00
2023-04-26T17:29:47.043Z,22.38
2023-04-26T17:32:17.367Z,22.02
2023-04-26T17:34:48.100Z,23.23
2023-04-26T17:37:18.216Z,22.87
2023-04-26T17:39:48.537Z,22.83
2023-04-26T17:42:19.180Z,21.75
2023-04-26T17:44:49.248Z,23.50
2023-04-26T17:47:19.656Z,23.55
2023-04-26T17:49:49.988Z,24.33
2023-04-26T17:52:20.739Z,24.77
2023-04-26T17:54:50.980Z,24.33
2023-04-26T17:57:24.519Z,24.02
2023-04-26T17:59:56.369Z,25.35
2023-04-26T18:02:28.218Z,25.35
2023-04-26T18:04:58.963Z,24.92
2023-04-26T18:07:29.503Z,25.58
2023-04-26T18:09:59.832Z,24.77
2023-04-26T18:12:33.081Z,27.65
2023-04-26T18:15:03.369Z,24.95
2023-04-26T18:17:33.704Z,27.15
2023-04-26T18:20:04.164Z,26.27
2023-04-26T18:22:34.972Z,28.83
2023-04-26T18:25:06.225Z,28.65
2023-04-26T18:27:36.520Z,27.65
2023-04-26T18:30:07.678Z,29.60
2023-04-26T18:32:38.170Z,25.42
2023-04-26T18:35:08.956Z,26.57
2023-04-26T18:37:40.282Z,27.27
2023-04-26T18:40:11.058Z,27.48
2023-04-26T18:42:41.426Z,30.77
2023-04-26T18:45:11.954Z,30.27
2023-04-26T18:47:42.310Z,31.83
2023-04-26T18:50:12.815Z,29.33
2023-04-26T18:52:43.146Z,29.63
2023-04-26T18:55:13.628Z,31.63
2023-04-26T18:57:44.023Z,33.25
2023-04-26T19:00:15.042Z,31.40
2023-04-26T19:02:45.746Z,31.05
2023-04-26T19:05:16.613Z,33.85
2023-04-26T19:07:47.969Z,32.37
2023-04-26T19:10:18.873Z,34.10
2023-04-26T19:12:49.273Z,36.65
2023-04-26T19:15:19.790Z,35.00
2023-04-26T19:17:50.623Z,35.00
2023-04-26T19:20:22.482Z,36.03
2023-04-26T19:22:52.823Z,36.25
2023-04-26T19:25:25.582Z,35.05
2023-04-26T19:27:55.870Z,37.03
2023-04-26T19:30:26.066Z,33.05
2023-04-26T19:32:56.418Z,34.58
2023-04-26T19:35:26.715Z,33.95
2023-04-26T19:37:56.921Z,31.77
2023-04-26T19:40:27.126Z,34.25
2023-04-26T19:42:57.987Z,31.75
2023-04-26T19:45:28.202Z,32.75
2023-04-26T19:47:58.966Z,31.38
2023-04-26T19:50:29.294Z,31.45
2023-04-26T19:52:59.319Z,29.23
2023-04-26T19:55:31.775Z,29.88
2023-04-26T19:58:04.080Z,28.55
2023-04-26T20:00:38.022Z,29.95
2023-04-26T20:03:08.747Z,29.45
2023-04-26T20:05:39.156Z,28.77
2023-04-26T20:08:09.423Z,29.02
2023-04-26T20:10:39.643Z,28.17
2023-04-26T20:13:10.100Z,28.50
2023-04-26T20:15:40.755Z,32.55
2023-04-26T20:18:10.923Z,30.17
2023-04-26T20:20:40.952Z,29.40
2023-04-26T20:23:11.098Z,31.05
2023-04-26T20:25:41.470Z,28.97
2023-04-26T20:28:11.548Z,28.77
2023-04-26T20:30:41.652Z,29.70
2023-04-26T20:33:11.877Z,29.85
2023-04-26T20:35:42.173Z,30.27
2023-04-26T20:38:13.167Z,30.30
2023-04-26T20:40:43.573Z,31.30
2023-04-26T20:43:14.448Z,29.83
2023-04-26T20:45:47.833Z,28.42
2023-04-26T20:48:18.122Z,28.52
2023-04-26T20:50:48.435Z,29.37
2023-04-26T20:53:18.966Z,30.92
2023-04-26T20:55:49.301Z,29.20
2023-04-26T20:58:19.621Z,28.15
2023-04-26T21:00:54.019Z,28.23
2023-04-26T21:03:24.957Z,29.27
2023-04-26T21:05:55.265Z,29.02
2023-04-26T21:08:25.405Z,29.25
2023-04-26T21:10:55.483Z,30.40
2023-04-26T21:13:26.130Z,27.95
2023-04-26T21:15:56.398Z,28.02
2023-04-26T21:18:26.647Z,27.33
2023-04-26T21:20:57.086Z,26.98
2023-04-26T21:23:27.492Z,27.47
2023-04-26T21:25:57.846Z,27.00
2023-04-26T21:28:28.120Z,27.20
2023-04-26T21:31:08.948Z,28.40
2023-04-26T21:33:39.404Z,27.52
2023-04-26T21:36:10.007Z,27.50
2023-04-26T21:38:40.332Z,27.97
2023-04-26T21:41:10.609Z,29.85
2023-04-26T21:43:41.135Z,29.23
2023-04-26T21:46:11.481Z,30.80
2023-04-26T21:48:41.718Z,29.85
2023-04-26T21:51:12.109Z,29.57
2023-04-26T22:55:39.574Z,32.53
2023-04-26T22:58:09.838Z,30.38
2023-04-26T23:00:40.025Z,33.35
2023-04-26T23:03:10.591Z,31.30
2023-04-26T23:05:40.899Z,31.73
2023-04-26T23:08:11.272Z,33.90
2023-04-26T23:10:42.426Z,33.03
2023-04-26T23:15:42.591Z,31.73
2023-04-26T23:18:13.002Z,29.63
2023-04-26T23:20:43.346Z,28.98
2023-04-26T23:23:13.570Z,31.55
2023-04-26T23:25:44.528Z,30.38
2023-04-26T23:28:14.764Z,30.38
2023-04-26T23:30:45.745Z,30.95
2023-04-26T23:33:16.004Z,29.50
2023-04-26T23:35:46.336Z,31.63
2023-04-26T23:38:16.634Z,31.42
2023-04-26T23:40:46.956Z,31.45
2023-04-26T23:43:17.287Z,31.63
2023-04-26T23:45:49.782Z,31.35
2023-04-26T23:48:20.341Z,34.42
2023-04-26T23:50:50.585Z,33.33
2023-04-26T23:53:21.857Z,34.00
2023-04-26T23:55:52.088Z,32.97
2023-04-26T23:58:22.420Z,35.17
